sensor_id;sensor_type;location;lat;lon;timestamp;P1;durP1;ratioP1;P2;durP2;ratioP2
7571;SDS011;3827;49.928;8.548;2024-01-06T00:02:20;5.35;;;2.30;;
7571;SDS011;3827;49.928;8.548;2024-01-06T00:04:47;5.03;;;2.78;;
7571;SDS011;3827;49.928;8.548;2024-01-06T00:07:14;4.97;;;2.20;;
7571;SDS011;3827;49.928;8.548;2024-01-06T00:09:41;4.20;;;2.30;;
7571;SDS011;3827;49.928;8.548;2024-01-06T00:12:09;5.22;;;3.17;;
7571;SDS011;3827;49.928;8.548;2024-01-06T00:14:35;4.75;;;2.40;;
7571;SDS011;3827;49.928;8.548;2024-01-06T00:17:02;5.30;;;2.47;;
7571;SDS011;3827;49.928;8.548;2024-01-06T00:19:29;5.07;;;2.30;;
7571;SDS011;3827;49.928;8.548;2024-01-06T00:21:56;3.85;;;2.08;;
7571;SDS011;3827;49.928;8.548;2024-01-06T00:24:23;3.97;;;2.20;;
7571;SDS011;3827;49.928;8.548;2024-01-06T00:26:49;3.80;;;2.30;;
7571;SDS011;3827;49.928;8.548;2024-01-06T00:29:17;4.60;;;2.50;;
7571;SDS011;3827;49.928;8.548;2024-01-06T00:31:44;5.25;;;2.75;;
7571;SDS011;3827;49.928;8.548;2024-01-06T00:34:11;6.45;;;2.78;;
7571;SDS011;3827;49.928;8.548;2024-01-06T00:36:38;5.80;;;3.30;;
7571;SDS011;3827;49.928;8.548;2024-01-06T00:39:04;4.90;;;2.55;;
7571;SDS011;3827;49.928;8.548;2024-01-06T00:41:31;5.25;;;2.40;;
7571;SDS011;3827;49.928;8.548;2024-01-06T00:43:58;4.85;;;2.45;;
7571;SDS011;3827;49.928;8.548;2024-01-06T00:46:26;5.32;;;2.38;;
7571;SDS011;3827;49.928;8.548;2024-01-06T00:48:53;3.47;;;2.10;;
7571;SDS011;3827;49.928;8.548;2024-01-06T00:51:19;5.57;;;2.43;;
7571;SDS011;3827;49.928;8.548;2024-01-06T00:53:47;4.90;;;2.30;;
7571;SDS011;3827;49.928;8.548;2024-01-06T00:56:13;4.25;;;2.40;;
7571;SDS011;3827;49.928;8.548;2024-01-06T00:58:40;3.33;;;2.10;;
7571;SDS011;3827;49.928;8.548;2024-01-06T01:01:07;4.45;;;2.13;;
7571;SDS011;3827;49.928;8.548;2024-01-06T01:03:35;4.63;;;2.13;;
7571;SDS011;3827;49.928;8.548;2024-01-06T01:06:02;5.07;;;2.40;;
7571;SDS011;3827;49.928;8.548;2024-01-06T01:08:29;4.22;;;2.05;;
7571;SDS011;3827;49.928;8.548;2024-01-06T01:10:55;6.05;;;2.65;;
7571;SDS011;3827;49.928;8.548;2024-01-06T01:13:23;3.25;;;2.30;;
7571;SDS011;3827;49.928;8.548;2024-01-06T01:15:49;4.18;;;2.58;;
7571;SDS011;3827;49.928;8.548;2024-01-06T01:18:16;3.08;;;2.60;;
7571;SDS011;3827;49.928;8.548;2024-01-06T01:20:44;2.55;;;2.35;;
7571;SDS011;3827;49.928;8.548;2024-01-06T01:23:11;3.88;;;2.30;;
7571;SDS011;3827;49.928;8.548;2024-01-06T01:25:38;3.92;;;2.10;;
7571;SDS011;3827;49.928;8.548;2024-01-06T01:28:04;4.47;;;2.20;;
7571;SDS011;3827;49.928;8.548;2024-01-06T01:30:31;4.40;;;2.20;;
7571;SDS011;3827;49.928;8.548;2024-01-06T01:32:58;4.35;;;2.35;;
7571;SDS011;3827;49.928;8.548;2024-01-06T01:35:25;4.32;;;1.85;;
7571;SDS011;3827;49.928;8.548;2024-01-06T01:37:53;4.90;;;2.20;;
7571;SDS011;3827;49.928;8.548;2024-01-06T01:40:20;4.03;;;2.05;;
7571;SDS011;3827;49.928;8.548;2024-01-06T01:42:46;3.35;;;2.10;;
7571;SDS011;3827;49.928;8.548;2024-01-06T01:45:13;3.80;;;2.17;;
7571;SDS011;3827;49.928;8.548;2024-01-06T01:47:40;7.20;;;2.42;;
7571;SDS011;3827;49.928;8.548;2024-01-06T01:50:07;3.70;;;2.40;;
7571;SDS011;3827;49.928;8.548;2024-01-06T01:52:36;4.78;;;2.28;;
7571;SDS011;3827;49.928;8.548;2024-01-06T01:55:04;4.63;;;2.20;;
7571;SDS011;3827;49.928;8.548;2024-01-06T01:57:32;4.70;;;2.55;;
7571;SDS011;3827;49.928;8.548;2024-01-06T01:59:58;4.18;;;2.55;;
7571;SDS011;3827;49.928;8.548;2024-01-06T02:02:28;5.90;;;2.40;;
7571;SDS011;3827;49.928;8.548;2024-01-06T02:04:55;4.15;;;2.05;;
7571;SDS011;3827;49.928;8.548;2024-01-06T02:07:22;4.03;;;2.20;;
7571;SDS011;3827;49.928;8.548;2024-01-06T02:09:49;5.18;;;2.40;;
7571;SDS011;3827;49.928;8.548;2024-01-06T02:12:17;3.65;;;2.00;;
7571;SDS011;3827;49.928;8.548;2024-01-06T02:14:44;5.38;;;2.33;;
7571;SDS011;3827;49.928;8.548;2024-01-06T02:17:10;3.65;;;2.00;;
7571;SDS011;3827;49.928;8.548;2024-01-06T02:19:37;4.97;;;2.47;;
7571;SDS011;3827;49.928;8.548;2024-01-06T02:22:05;4.22;;;2.03;;
7571;SDS011;3827;49.928;8.548;2024-01-06T02:24:32;3.40;;;2.17;;
7571;SDS011;3827;49.928;8.548;2024-01-06T02:26:59;4.97;;;2.72;;
7571;SDS011;3827;49.928;8.548;2024-01-06T02:29:26;3.95;;;2.10;;
7571;SDS011;3827;49.928;8.548;2024-01-06T02:31:52;4.63;;;2.50;;
7571;SDS011;3827;49.928;8.548;2024-01-06T02:34:19;4.30;;;2.50;;
7571;SDS011;3827;49.928;8.548;2024-01-06T02:36:46;5.40;;;2.63;;
7571;SDS011;3827;49.928;8.548;2024-01-06T02:39:14;4.22;;;2.20;;
7571;SDS011;3827;49.928;8.548;2024-01-06T02:41:40;4.93;;;2.40;;
7571;SDS011;3827;49.928;8.548;2024-01-06T02:44:07;5.75;;;2.55;;
7571;SDS011;3827;49.928;8.548;2024-01-06T02:46:34;4.73;;;2.40;;
7571;SDS011;3827;49.928;8.548;2024-01-06T02:49:01;4.05;;;2.20;;
7571;SDS011;3827;49.928;8.548;2024-01-06T02:51:28;4.32;;;2.00;;
7571;SDS011;3827;49.928;8.548;2024-01-06T02:53:54;3.55;;;2.10;;
7571;SDS011;3827;49.928;8.548;2024-01-06T02:56:22;2.35;;;1.98;;
7571;SDS011;3827;49.928;8.548;2024-01-06T02:58:49;5.00;;;2.20;;
7571;SDS011;3827;49.928;8.548;2024-01-06T03:01:16;5.25;;;2.00;;
7571;SDS011;3827;49.928;8.548;2024-01-06T03:03:44;2.90;;;1.90;;
7571;SDS011;3827;49.928;8.548;2024-01-06T03:06:10;3.95;;;1.95;;
7571;SDS011;3827;49.928;8.548;2024-01-06T03:08:37;4.25;;;2.17;;
7571;SDS011;3827;49.928;8.548;2024-01-06T03:11:04;5.07;;;2.38;;
7571;SDS011;3827;49.928;8.548;2024-01-06T03:13:32;5.25;;;2.58;;
7571;SDS011;3827;49.928;8.548;2024-01-06T03:16:01;4.10;;;2.30;;
7571;SDS011;3827;49.928;8.548;2024-01-06T03:18:30;3.90;;;2.03;;
7571;SDS011;3827;49.928;8.548;2024-01-06T03:20:56;4.13;;;2.67;;
7571;SDS011;3827;49.928;8.548;2024-01-06T03:23:23;6.03;;;2.33;;
7571;SDS011;3827;49.928;8.548;2024-01-06T03:25:50;3.90;;;2.20;;
7571;SDS011;3827;49.928;8.548;2024-01-06T03:28:17;4.55;;;2.20;;
7571;SDS011;3827;49.928;8.548;2024-01-06T03:30:45;6.00;;;2.08;;
7571;SDS011;3827;49.928;8.548;2024-01-06T03:33:12;3.30;;;2.60;;
7571;SDS011;3827;49.928;8.548;2024-01-06T03:35:38;4.03;;;2.30;;
7571;SDS011;3827;49.928;8.548;2024-01-06T03:38:05;3.85;;;2.30;;
7571;SDS011;3827;49.928;8.548;2024-01-06T03:40:32;2.97;;;2.20;;
7571;SDS011;3827;49.928;8.548;2024-01-06T03:42:59;3.97;;;2.10;;
7571;SDS011;3827;49.928;8.548;2024-01-06T03:45:25;2.78;;;1.92;;
7571;SDS011;3827;49.928;8.548;2024-01-06T03:47:53;5.25;;;2.60;;
7571;SDS011;3827;49.928;8.548;2024-01-06T03:50:20;4.40;;;2.15;;
7571;SDS011;3827;49.928;8.548;2024-01-06T03:52:47;4.65;;;2.38;;
7571;SDS011;3827;49.928;8.548;2024-01-06T03:55:15;3.17;;;2.30;;
7571;SDS011;3827;49.928;8.548;2024-01-06T03:57:42;3.13;;;2.35;;
7571;SDS011;3827;49.928;8.548;2024-01-06T04:00:09;4.57;;;2.10;;
7571;SDS011;3827;49.928;8.548;2024-01-06T04:02:36;3.35;;;2.00;;
7571;SDS011;3827;49.928;8.548;2024-01-06T04:05:04;4.18;;;2.03;;
7571;SDS011;3827;49.928;8.548;2024-01-06T04:07:31;5.78;;;2.42;;
7571;SDS011;3827;49.928;8.548;2024-01-06T04:09:58;3.13;;;2.03;;
7571;SDS011;3827;49.928;8.548;2024-01-06T04:12:25;3.55;;;1.92;;
7571;SDS011;3827;49.928;8.548;2024-01-06T04:14:51;4.30;;;2.53;;
7571;SDS011;3827;49.928;8.548;2024-01-06T04:17:18;3.53;;;2.65;;
7571;SDS011;3827;49.928;8.548;2024-01-06T04:19:45;4.67;;;2.33;;
7571;SDS011;3827;49.928;8.548;2024-01-06T04:22:13;4.93;;;2.40;;
7571;SDS011;3827;49.928;8.548;2024-01-06T04:24:40;4.60;;;2.33;;
7571;SDS011;3827;49.928;8.548;2024-01-06T04:27:07;3.80;;;2.33;;
7571;SDS011;3827;49.928;8.548;2024-01-06T04:29:34;3.70;;;2.50;;
7571;SDS011;3827;49.928;8.548;2024-01-06T04:32:01;5.53;;;2.70;;
7571;SDS011;3827;49.928;8.548;2024-01-06T04:34:28;3.67;;;2.20;;
7571;SDS011;3827;49.928;8.548;2024-01-06T04:36:55;5.10;;;2.45;;
7571;SDS011;3827;49.928;8.548;2024-01-06T04:39:23;3.53;;;2.63;;
7571;SDS011;3827;49.928;8.548;2024-01-06T04:41:50;3.95;;;2.25;;
7571;SDS011;3827;49.928;8.548;2024-01-06T04:44:19;3.95;;;2.33;;
7571;SDS011;3827;49.928;8.548;2024-01-06T04:46:47;3.72;;;2.28;;
7571;SDS011;3827;49.928;8.548;2024-01-06T04:49:14;4.90;;;2.60;;
7571;SDS011;3827;49.928;8.548;2024-01-06T04:51:40;5.15;;;2.55;;
7571;SDS011;3827;49.928;8.548;2024-01-06T04:54:07;5.10;;;2.70;;
7571;SDS011;3827;49.928;8.548;2024-01-06T04:56:35;4.88;;;2.83;;
7571;SDS011;3827;49.928;8.548;2024-01-06T04:59:02;4.78;;;2.35;;
7571;SDS011;3827;49.928;8.548;2024-01-06T05:01:29;3.70;;;2.50;;
7571;SDS011;3827;49.928;8.548;2024-01-06T05:03:55;4.15;;;2.75;;
7571;SDS011;3827;49.928;8.548;2024-01-06T05:06:22;5.03;;;2.60;;
7571;SDS011;3827;49.928;8.548;2024-01-06T05:08:49;5.60;;;2.50;;
7571;SDS011;3827;49.928;8.548;2024-01-06T05:11:16;5.50;;;2.50;;
7571;SDS011;3827;49.928;8.548;2024-01-06T05:13:44;4.53;;;2.40;;
7571;SDS011;3827;49.928;8.548;2024-01-06T05:16:11;5.75;;;2.47;;
7571;SDS011;3827;49.928;8.548;2024-01-06T05:18:38;2.97;;;2.22;;
7571;SDS011;3827;49.928;8.548;2024-01-06T05:21:04;5.07;;;2.30;;
7571;SDS011;3827;49.928;8.548;2024-01-06T05:23:31;4.38;;;2.15;;
7571;SDS011;3827;49.928;8.548;2024-01-06T05:25:58;4.38;;;2.30;;
7571;SDS011;3827;49.928;8.548;2024-01-06T05:28:25;4.85;;;2.25;;
7571;SDS011;3827;49.928;8.548;2024-01-06T05:30:53;3.90;;;2.40;;
7571;SDS011;3827;49.928;8.548;2024-01-06T05:33:19;3.45;;;2.33;;
7571;SDS011;3827;49.928;8.548;2024-01-06T05:35:46;5.15;;;2.83;;
7571;SDS011;3827;49.928;8.548;2024-01-06T05:38:13;4.65;;;2.20;;
7571;SDS011;3827;49.928;8.548;2024-01-06T05:40:40;4.63;;;2.28;;
7571;SDS011;3827;49.928;8.548;2024-01-06T05:43:07;3.50;;;2.35;;
7571;SDS011;3827;49.928;8.548;2024-01-06T05:48:05;6.00;;;2.92;;
7571;SDS011;3827;49.928;8.548;2024-01-06T05:50:35;3.15;;;2.00;;
7571;SDS011;3827;49.928;8.548;2024-01-06T05:53:01;4.45;;;2.10;;
7571;SDS011;3827;49.928;8.548;2024-01-06T05:55:28;4.18;;;2.25;;
7571;SDS011;3827;49.928;8.548;2024-01-06T05:57:55;4.60;;;2.33;;
7571;SDS011;3827;49.928;8.548;2024-01-06T06:00:22;5.07;;;2.55;;
7571;SDS011;3827;49.928;8.548;2024-01-06T06:02:48;4.60;;;2.00;;
7571;SDS011;3827;49.928;8.548;2024-01-06T06:05:16;5.30;;;2.80;;
7571;SDS011;3827;49.928;8.548;2024-01-06T06:07:43;4.38;;;2.50;;
7571;SDS011;3827;49.928;8.548;2024-01-06T06:10:10;4.47;;;2.30;;
7571;SDS011;3827;49.928;8.548;2024-01-06T06:12:37;3.67;;;2.25;;
7571;SDS011;3827;49.928;8.548;2024-01-06T06:15:05;3.97;;;2.40;;
7571;SDS011;3827;49.928;8.548;2024-01-06T06:17:32;4.53;;;2.40;;
7571;SDS011;3827;49.928;8.548;2024-01-06T06:19:59;4.38;;;2.30;;
7571;SDS011;3827;49.928;8.548;2024-01-06T06:22:27;3.67;;;2.35;;
7571;SDS011;3827;49.928;8.548;2024-01-06T06:24:56;3.50;;;2.60;;
7571;SDS011;3827;49.928;8.548;2024-01-06T06:27:22;3.67;;;2.50;;
7571;SDS011;3827;49.928;8.548;2024-01-06T06:29:49;4.85;;;2.53;;
7571;SDS011;3827;49.928;8.548;2024-01-06T06:32:16;4.65;;;2.90;;
7571;SDS011;3827;49.928;8.548;2024-01-06T06:34:43;5.00;;;2.90;;
7571;SDS011;3827;49.928;8.548;2024-01-06T06:37:10;4.70;;;2.77;;
7571;SDS011;3827;49.928;8.548;2024-01-06T06:39:38;4.15;;;3.03;;
7571;SDS011;3827;49.928;8.548;2024-01-06T06:42:05;5.93;;;3.17;;
7571;SDS011;3827;49.928;8.548;2024-01-06T06:44:31;3.40;;;2.95;;
7571;SDS011;3827;49.928;8.548;2024-01-06T06:46:58;4.88;;;2.90;;
7571;SDS011;3827;49.928;8.548;2024-01-06T06:49:25;5.80;;;3.08;;
7571;SDS011;3827;49.928;8.548;2024-01-06T06:51:52;4.17;;;3.20;;
7571;SDS011;3827;49.928;8.548;2024-01-06T06:54:20;6.03;;;3.30;;
7571;SDS011;3827;49.928;8.548;2024-01-06T06:56:49;6.07;;;3.50;;
7571;SDS011;3827;49.928;8.548;2024-01-06T06:59:15;5.40;;;2.85;;
7571;SDS011;3827;49.928;8.548;2024-01-06T07:01:42;5.20;;;2.85;;
7571;SDS011;3827;49.928;8.548;2024-01-06T07:04:09;4.03;;;2.80;;
7571;SDS011;3827;49.928;8.548;2024-01-06T07:06:36;4.87;;;2.70;;
7571;SDS011;3827;49.928;8.548;2024-01-06T07:09:02;5.80;;;2.88;;
7571;SDS011;3827;49.928;8.548;2024-01-06T07:11:30;5.30;;;3.03;;
7571;SDS011;3827;49.928;8.548;2024-01-06T07:13:58;4.38;;;2.88;;
7571;SDS011;3827;49.928;8.548;2024-01-06T07:16:23;4.47;;;3.08;;
7571;SDS011;3827;49.928;8.548;2024-01-06T07:18:50;4.93;;;3.35;;
7571;SDS011;3827;49.928;8.548;2024-01-06T07:21:17;4.20;;;2.90;;
7571;SDS011;3827;49.928;8.548;2024-01-06T07:23:44;5.35;;;3.20;;
7571;SDS011;3827;49.928;8.548;2024-01-06T07:26:11;5.60;;;3.08;;
7571;SDS011;3827;49.928;8.548;2024-01-06T07:28:38;5.18;;;2.95;;
7571;SDS011;3827;49.928;8.548;2024-01-06T07:31:06;5.18;;;3.00;;
7571;SDS011;3827;49.928;8.548;2024-01-06T07:33:33;6.00;;;3.10;;
7571;SDS011;3827;49.928;8.548;2024-01-06T07:35:59;4.93;;;3.50;;
7571;SDS011;3827;49.928;8.548;2024-01-06T07:38:26;5.97;;;3.20;;
7571;SDS011;3827;49.928;8.548;2024-01-06T07:40:56;6.70;;;3.77;;
7571;SDS011;3827;49.928;8.548;2024-01-06T07:43:22;6.65;;;3.28;;
7571;SDS011;3827;49.928;8.548;2024-01-06T07:45:49;4.40;;;2.85;;
7571;SDS011;3827;49.928;8.548;2024-01-06T07:48:17;4.38;;;3.20;;
7571;SDS011;3827;49.928;8.548;2024-01-06T07:50:44;7.18;;;3.58;;
7571;SDS011;3827;49.928;8.548;2024-01-06T07:53:11;3.85;;;3.20;;
7571;SDS011;3827;49.928;8.548;2024-01-06T07:55:38;6.00;;;3.80;;
7571;SDS011;3827;49.928;8.548;2024-01-06T07:58:05;4.75;;;3.35;;
7571;SDS011;3827;49.928;8.548;2024-01-06T08:00:32;5.10;;;3.22;;
7571;SDS011;3827;49.928;8.548;2024-01-06T08:02:59;5.63;;;3.30;;
7571;SDS011;3827;49.928;8.548;2024-01-06T08:05:27;4.50;;;3.20;;
7571;SDS011;3827;49.928;8.548;2024-01-06T08:07:54;4.40;;;3.40;;
7571;SDS011;3827;49.928;8.548;2024-01-06T08:10:21;5.35;;;3.03;;
7571;SDS011;3827;49.928;8.548;2024-01-06T08:12:47;5.72;;;3.28;;
7571;SDS011;3827;49.928;8.548;2024-01-06T08:15:14;6.50;;;3.67;;
7571;SDS011;3827;49.928;8.548;2024-01-06T08:17:41;4.53;;;3.17;;
7571;SDS011;3827;49.928;8.548;2024-01-06T08:20:08;4.10;;;3.55;;
7571;SDS011;3827;49.928;8.548;2024-01-06T08:22:37;5.60;;;3.40;;
7571;SDS011;3827;49.928;8.548;2024-01-06T08:25:04;7.20;;;4.27;;
7571;SDS011;3827;49.928;8.548;2024-01-06T08:27:32;6.22;;;4.90;;
7571;SDS011;3827;49.928;8.548;2024-01-06T08:29:59;6.25;;;4.80;;
7571;SDS011;3827;49.928;8.548;2024-01-06T08:32:26;7.83;;;4.60;;
7571;SDS011;3827;49.928;8.548;2024-01-06T08:34:53;6.88;;;4.03;;
7571;SDS011;3827;49.928;8.548;2024-01-06T08:37:19;4.88;;;3.67;;
7571;SDS011;3827;49.928;8.548;2024-01-06T08:39:47;4.45;;;3.47;;
7571;SDS011;3827;49.928;8.548;2024-01-06T08:42:14;5.20;;;3.72;;
7571;SDS011;3827;49.928;8.548;2024-01-06T08:44:41;5.97;;;3.65;;
7571;SDS011;3827;49.928;8.548;2024-01-06T08:47:08;4.57;;;3.50;;
7571;SDS011;3827;49.928;8.548;2024-01-06T08:49:35;4.03;;;3.35;;
7571;SDS011;3827;49.928;8.548;2024-01-06T08:52:02;6.27;;;3.53;;
7571;SDS011;3827;49.928;8.548;2024-01-06T08:54:30;5.30;;;3.17;;
7571;SDS011;3827;49.928;8.548;2024-01-06T08:56:59;5.63;;;3.47;;
7571;SDS011;3827;49.928;8.548;2024-01-06T08:59:25;4.70;;;3.55;;
7571;SDS011;3827;49.928;8.548;2024-01-06T09:01:52;3.80;;;3.45;;
7571;SDS011;3827;49.928;8.548;2024-01-06T09:04:19;5.05;;;3.67;;
7571;SDS011;3827;49.928;8.548;2024-01-06T09:06:46;5.13;;;3.70;;
7571;SDS011;3827;49.928;8.548;2024-01-06T09:09:12;4.60;;;3.60;;
7571;SDS011;3827;49.928;8.548;2024-01-06T09:11:39;4.75;;;4.00;;
7571;SDS011;3827;49.928;8.548;2024-01-06T09:14:08;4.88;;;3.92;;
7571;SDS011;3827;49.928;8.548;2024-01-06T09:16:35;5.60;;;3.88;;
7571;SDS011;3827;49.928;8.548;2024-01-06T09:19:02;6.38;;;3.97;;
7571;SDS011;3827;49.928;8.548;2024-01-06T09:21:29;6.45;;;4.15;;
7571;SDS011;3827;49.928;8.548;2024-01-06T09:23:56;6.38;;;4.60;;
7571;SDS011;3827;49.928;8.548;2024-01-06T09:26:22;4.53;;;4.13;;
7571;SDS011;3827;49.928;8.548;2024-01-06T09:28:50;5.40;;;4.15;;
7571;SDS011;3827;49.928;8.548;2024-01-06T09:31:18;4.70;;;4.20;;
7571;SDS011;3827;49.928;8.548;2024-01-06T09:33:44;5.18;;;4.28;;
7571;SDS011;3827;49.928;8.548;2024-01-06T09:36:11;5.70;;;4.32;;
7571;SDS011;3827;49.928;8.548;2024-01-06T09:38:38;5.32;;;4.00;;
7571;SDS011;3827;49.928;8.548;2024-01-06T09:41:05;6.47;;;4.20;;
7571;SDS011;3827;49.928;8.548;2024-01-06T09:43:32;6.20;;;4.43;;
7571;SDS011;3827;49.928;8.548;2024-01-06T09:46:02;6.57;;;4.57;;
7571;SDS011;3827;49.928;8.548;2024-01-06T09:48:35;7.07;;;4.60;;
7571;SDS011;3827;49.928;8.548;2024-01-06T09:51:06;6.28;;;4.85;;
7571;SDS011;3827;49.928;8.548;2024-01-06T09:53:38;5.07;;;4.40;;
7571;SDS011;3827;49.928;8.548;2024-01-06T09:56:14;4.95;;;4.45;;
7571;SDS011;3827;49.928;8.548;2024-01-06T09:58:42;5.55;;;4.32;;
7571;SDS011;3827;49.928;8.548;2024-01-06T10:01:10;5.90;;;4.35;;
7571;SDS011;3827;49.928;8.548;2024-01-06T10:03:40;5.65;;;4.50;;
7571;SDS011;3827;49.928;8.548;2024-01-06T10:06:07;5.43;;;4.38;;
7571;SDS011;3827;49.928;8.548;2024-01-06T10:08:34;5.22;;;4.22;;
7571;SDS011;3827;49.928;8.548;2024-01-06T10:11:01;6.10;;;4.38;;
7571;SDS011;3827;49.928;8.548;2024-01-06T10:13:28;7.35;;;5.25;;
7571;SDS011;3827;49.928;8.548;2024-01-06T10:15:55;5.80;;;4.43;;
7571;SDS011;3827;49.928;8.548;2024-01-06T10:18:22;5.93;;;4.32;;
7571;SDS011;3827;49.928;8.548;2024-01-06T10:20:53;6.18;;;4.68;;
7571;SDS011;3827;49.928;8.548;2024-01-06T10:23:21;6.85;;;4.90;;
7571;SDS011;3827;49.928;8.548;2024-01-06T10:25:51;7.05;;;4.70;;
7571;SDS011;3827;49.928;8.548;2024-01-06T10:28:18;6.97;;;4.63;;
7571;SDS011;3827;49.928;8.548;2024-01-06T10:30:46;6.75;;;5.22;;
7571;SDS011;3827;49.928;8.548;2024-01-06T10:33:13;6.68;;;5.00;;
7571;SDS011;3827;49.928;8.548;2024-01-06T10:35:40;5.72;;;4.40;;
7571;SDS011;3827;49.928;8.548;2024-01-06T10:38:11;5.75;;;4.88;;
7571;SDS011;3827;49.928;8.548;2024-01-06T10:40:37;5.47;;;4.70;;
7571;SDS011;3827;49.928;8.548;2024-01-06T10:43:04;6.20;;;4.78;;
7571;SDS011;3827;49.928;8.548;2024-01-06T10:45:32;6.13;;;4.97;;
7571;SDS011;3827;49.928;8.548;2024-01-06T10:47:59;6.32;;;5.32;;
7571;SDS011;3827;49.928;8.548;2024-01-06T10:50:28;7.32;;;4.95;;
7571;SDS011;3827;49.928;8.548;2024-01-06T10:52:56;6.50;;;5.30;;
7571;SDS011;3827;49.928;8.548;2024-01-06T10:55:25;5.57;;;4.60;;
7571;SDS011;3827;49.928;8.548;2024-01-06T10:57:52;5.90;;;5.05;;
7571;SDS011;3827;49.928;8.548;2024-01-06T11:00:20;6.03;;;4.95;;
7571;SDS011;3827;49.928;8.548;2024-01-06T11:02:47;5.40;;;4.80;;
7571;SDS011;3827;49.928;8.548;2024-01-06T11:05:17;9.05;;;5.60;;
7571;SDS011;3827;49.928;8.548;2024-01-06T11:07:46;6.05;;;5.45;;
7571;SDS011;3827;49.928;8.548;2024-01-06T11:10:17;5.97;;;5.13;;
7571;SDS011;3827;49.928;8.548;2024-01-06T11:15:38;5.50;;;5.00;;
7571;SDS011;3827;49.928;8.548;2024-01-06T11:18:06;7.28;;;5.35;;
7571;SDS011;3827;49.928;8.548;2024-01-06T11:20:33;7.20;;;5.30;;
7571;SDS011;3827;49.928;8.548;2024-01-06T11:25:43;5.70;;;5.05;;
7571;SDS011;3827;49.928;8.548;2024-01-06T11:28:11;7.53;;;5.05;;
7571;SDS011;3827;49.928;8.548;2024-01-06T11:30:39;6.22;;;4.50;;
7571;SDS011;3827;49.928;8.548;2024-01-06T11:33:08;6.43;;;5.57;;
7571;SDS011;3827;49.928;8.548;2024-01-06T11:35:36;6.53;;;5.25;;
7571;SDS011;3827;49.928;8.548;2024-01-06T11:38:06;6.85;;;4.90;;
7571;SDS011;3827;49.928;8.548;2024-01-06T11:40:34;6.00;;;5.20;;
7571;SDS011;3827;49.928;8.548;2024-01-06T11:43:04;6.13;;;5.20;;
7571;SDS011;3827;49.928;8.548;2024-01-06T11:45:34;5.50;;;4.65;;
7571;SDS011;3827;49.928;8.548;2024-01-06T11:48:02;5.72;;;5.13;;
7571;SDS011;3827;49.928;8.548;2024-01-06T11:50:31;5.45;;;4.75;;
7571;SDS011;3827;49.928;8.548;2024-01-06T11:52:59;6.30;;;4.85;;
7571;SDS011;3827;49.928;8.548;2024-01-06T11:55:27;5.45;;;4.78;;
7571;SDS011;3827;49.928;8.548;2024-01-06T11:57:56;5.60;;;4.65;;
7571;SDS011;3827;49.928;8.548;2024-01-06T12:00:27;5.00;;;4.35;;
7571;SDS011;3827;49.928;8.548;2024-01-06T12:02:58;5.30;;;4.57;;
7571;SDS011;3827;49.928;8.548;2024-01-06T12:05:26;5.63;;;4.70;;
7571;SDS011;3827;49.928;8.548;2024-01-06T12:07:53;5.25;;;4.60;;
7571;SDS011;3827;49.928;8.548;2024-01-06T12:10:21;4.70;;;4.30;;
7571;SDS011;3827;49.928;8.548;2024-01-06T12:12:58;5.80;;;4.65;;
7571;SDS011;3827;49.928;8.548;2024-01-06T12:15:27;5.88;;;4.72;;
7571;SDS011;3827;49.928;8.548;2024-01-06T12:17:55;6.32;;;4.60;;
7571;SDS011;3827;49.928;8.548;2024-01-06T12:20:23;5.93;;;4.90;;
7571;SDS011;3827;49.928;8.548;2024-01-06T12:22:51;5.20;;;4.32;;
7571;SDS011;3827;49.928;8.548;2024-01-06T12:25:20;5.28;;;4.35;;
7571;SDS011;3827;49.928;8.548;2024-01-06T12:27:47;4.90;;;4.40;;
7571;SDS011;3827;49.928;8.548;2024-01-06T12:30:15;5.70;;;4.50;;
7571;SDS011;3827;49.928;8.548;2024-01-06T12:32:44;5.22;;;4.55;;
7571;SDS011;3827;49.928;8.548;2024-01-06T12:35:14;4.32;;;3.90;;
7571;SDS011;3827;49.928;8.548;2024-01-06T12:37:42;5.70;;;4.53;;
7571;SDS011;3827;49.928;8.548;2024-01-06T12:40:10;4.85;;;4.28;;
7571;SDS011;3827;49.928;8.548;2024-01-06T12:42:39;5.07;;;4.32;;
7571;SDS011;3827;49.928;8.548;2024-01-06T12:45:07;4.85;;;4.35;;
7571;SDS011;3827;49.928;8.548;2024-01-06T12:47:36;4.78;;;4.07;;
7571;SDS011;3827;49.928;8.548;2024-01-06T12:50:03;4.70;;;4.03;;
7571;SDS011;3827;49.928;8.548;2024-01-06T12:52:31;5.13;;;4.50;;
7571;SDS011;3827;49.928;8.548;2024-01-06T12:55:00;5.47;;;4.70;;
7571;SDS011;3827;49.928;8.548;2024-01-06T12:57:28;5.97;;;4.35;;
7571;SDS011;3827;49.928;8.548;2024-01-06T12:59:55;5.25;;;3.97;;
7571;SDS011;3827;49.928;8.548;2024-01-06T13:02:22;5.15;;;4.18;;
7571;SDS011;3827;49.928;8.548;2024-01-06T13:04:49;5.63;;;4.93;;
7571;SDS011;3827;49.928;8.548;2024-01-06T13:07:16;10.18;;;7.43;;
7571;SDS011;3827;49.928;8.548;2024-01-06T13:09:43;5.80;;;5.20;;
7571;SDS011;3827;49.928;8.548;2024-01-06T13:12:12;5.32;;;4.20;;
7571;SDS011;3827;49.928;8.548;2024-01-06T13:14:39;5.25;;;4.55;;
7571;SDS011;3827;49.928;8.548;2024-01-06T13:17:07;5.90;;;4.53;;
7571;SDS011;3827;49.928;8.548;2024-01-06T13:19:34;4.95;;;4.28;;
7571;SDS011;3827;49.928;8.548;2024-01-06T13:22:01;4.55;;;3.85;;
7571;SDS011;3827;49.928;8.548;2024-01-06T13:24:28;4.88;;;3.92;;
7571;SDS011;3827;49.928;8.548;2024-01-06T13:26:55;4.05;;;3.53;;
7571;SDS011;3827;49.928;8.548;2024-01-06T13:29:25;4.07;;;3.78;;
7571;SDS011;3827;49.928;8.548;2024-01-06T13:31:52;5.43;;;4.50;;
7571;SDS011;3827;49.928;8.548;2024-01-06T13:34:19;4.38;;;3.97;;
7571;SDS011;3827;49.928;8.548;2024-01-06T13:36:46;4.57;;;4.18;;
7571;SDS011;3827;49.928;8.548;2024-01-06T13:39:13;5.80;;;4.53;;
7571;SDS011;3827;49.928;8.548;2024-01-06T13:41:45;6.30;;;5.50;;
7571;SDS011;3827;49.928;8.548;2024-01-06T13:44:12;6.50;;;5.80;;
7571;SDS011;3827;49.928;8.548;2024-01-06T13:46:41;7.20;;;6.38;;
7571;SDS011;3827;49.928;8.548;2024-01-06T13:49:10;7.07;;;6.03;;
7571;SDS011;3827;49.928;8.548;2024-01-06T13:51:37;8.05;;;6.55;;
7571;SDS011;3827;49.928;8.548;2024-01-06T13:54:04;7.03;;;5.85;;
7571;SDS011;3827;49.928;8.548;2024-01-06T13:56:31;7.28;;;6.38;;
7571;SDS011;3827;49.928;8.548;2024-01-06T13:58:58;7.47;;;6.40;;
7571;SDS011;3827;49.928;8.548;2024-01-06T14:01:25;9.70;;;7.13;;
7571;SDS011;3827;49.928;8.548;2024-01-06T14:03:54;7.53;;;6.75;;
7571;SDS011;3827;49.928;8.548;2024-01-06T14:06:22;8.85;;;6.88;;
7571;SDS011;3827;49.928;8.548;2024-01-06T14:08:50;7.20;;;6.50;;
7571;SDS011;3827;49.928;8.548;2024-01-06T14:11:17;7.78;;;6.80;;
7571;SDS011;3827;49.928;8.548;2024-01-06T14:13:45;7.38;;;6.68;;
7571;SDS011;3827;49.928;8.548;2024-01-06T14:16:13;8.32;;;7.15;;
7571;SDS011;3827;49.928;8.548;2024-01-06T14:18:40;7.47;;;6.72;;
7571;SDS011;3827;49.928;8.548;2024-01-06T14:21:10;7.80;;;7.00;;
7571;SDS011;3827;49.928;8.548;2024-01-06T14:23:39;8.80;;;7.20;;
7571;SDS011;3827;49.928;8.548;2024-01-06T14:26:06;8.43;;;7.40;;
7571;SDS011;3827;49.928;8.548;2024-01-06T14:28:33;11.48;;;10.38;;
7571;SDS011;3827;49.928;8.548;2024-01-06T14:31:00;10.43;;;9.38;;
7571;SDS011;3827;49.928;8.548;2024-01-06T14:33:27;12.32;;;11.23;;
7571;SDS011;3827;49.928;8.548;2024-01-06T14:35:53;10.88;;;9.50;;
7571;SDS011;3827;49.928;8.548;2024-01-06T14:38:21;10.32;;;8.50;;
7571;SDS011;3827;49.928;8.548;2024-01-06T14:40:48;11.90;;;9.33;;
7571;SDS011;3827;49.928;8.548;2024-01-06T14:43:15;9.50;;;8.50;;
7571;SDS011;3827;49.928;8.548;2024-01-06T14:45:42;9.63;;;8.63;;
7571;SDS011;3827;49.928;8.548;2024-01-06T14:48:10;8.90;;;8.00;;
7571;SDS011;3827;49.928;8.548;2024-01-06T14:50:37;11.00;;;8.60;;
7571;SDS011;3827;49.928;8.548;2024-01-06T14:53:04;9.52;;;8.52;;
7571;SDS011;3827;49.928;8.548;2024-01-06T14:55:33;9.60;;;8.65;;
7571;SDS011;3827;49.928;8.548;2024-01-06T14:57:59;9.10;;;8.15;;
7571;SDS011;3827;49.928;8.548;2024-01-06T15:00:28;8.85;;;7.22;;
7571;SDS011;3827;49.928;8.548;2024-01-06T15:02:55;8.55;;;6.70;;
7571;SDS011;3827;49.928;8.548;2024-01-06T15:05:22;8.18;;;7.38;;
7571;SDS011;3827;49.928;8.548;2024-01-06T15:07:53;12.88;;;10.20;;
7571;SDS011;3827;49.928;8.548;2024-01-06T15:10:20;11.55;;;9.60;;
7571;SDS011;3827;49.928;8.548;2024-01-06T15:12:48;11.65;;;9.88;;
7571;SDS011;3827;49.928;8.548;2024-01-06T15:15:14;10.77;;;8.70;;
7571;SDS011;3827;49.928;8.548;2024-01-06T15:17:41;10.20;;;8.80;;
7571;SDS011;3827;49.928;8.548;2024-01-06T15:20:08;10.48;;;9.38;;
7571;SDS011;3827;49.928;8.548;2024-01-06T15:22:35;9.98;;;8.88;;
7571;SDS011;3827;49.928;8.548;2024-01-06T15:25:02;9.65;;;8.55;;